createdAt,value
2019-05-21T00:01:39.514Z,98958.34
2019-05-21T00:03:45.943Z,98965.02
2019-05-21T00:05:52.386Z,98965.05
2019-05-21T00:07:58.859Z,98970.36
2019-05-21T00:10:08.537Z,98967.31
2019-05-21T00:12:15.067Z,98969.61
2019-05-21T00:14:21.473Z,98969.20
2019-05-21T00:16:27.887Z,98968.81
2019-05-21T00:18:34.417Z,98968.38
2019-05-21T00:20:40.902Z,98965.76
2019-05-21T00:22:47.311Z,98976.00
2019-05-21T00:24:53.845Z,98985.30
2019-05-21T00:27:00.368Z,98984.42
2019-05-21T00:30:01.546Z,98978.66
2019-05-21T00:33:03.455Z,98983.52
2019-05-21T00:36:05.799Z,98971.14
2019-05-21T00:39:06.766Z,98964.92
2019-05-21T00:42:00.527Z,98964.89
2019-05-21T00:44:07.208Z,98968.84
2019-05-21T00:46:13.799Z,98957.80
2019-05-21T00:48:20.240Z,98963.98
2019-05-21T00:50:26.726Z,98968.84
2019-05-21T00:52:33.118Z,98962.62
2019-05-21T00:54:39.655Z,98959.48
2019-05-21T00:56:46.153Z,98955.49
2019-05-21T00:58:52.596Z,98957.24
2019-05-21T01:00:59.032Z,98958.08
2019-05-21T01:03:05.485Z,98954.48
2019-05-21T01:05:12.026Z,98953.58
2019-05-21T01:07:18.505Z,98954.88
2019-05-21T01:09:25.058Z,98943.34
2019-05-21T01:11:31.487Z,98954.80
2019-05-21T01:13:37.904Z,98940.20
2019-05-21T01:15:44.671Z,98934.85
2019-05-21T01:17:51.167Z,98935.27
2019-05-21T01:19:57.648Z,98944.98
2019-05-21T01:22:04.134Z,98942.81
2019-05-21T01:24:10.712Z,98937.05
2019-05-21T01:26:17.206Z,98937.92
2019-05-21T01:28:23.700Z,98937.50
2019-05-21T01:30:30.119Z,98938.91
2019-05-21T01:32:36.493Z,98929.22
2019-05-21T01:34:42.970Z,98931.45
2019-05-21T01:36:49.397Z,98930.20
2019-05-21T01:38:55.777Z,98924.00
2019-05-21T01:41:02.244Z,98920.47
2019-05-21T01:43:08.734Z,98924.95
2019-05-21T01:45:15.305Z,98924.95
2019-05-21T01:47:21.727Z,98909.50
2019-05-21T01:49:28.144Z,98913.91
2019-05-21T01:51:34.554Z,98910.83
2019-05-21T01:53:40.996Z,98912.16
2019-05-21T01:55:47.418Z,98922.36
2019-05-21T01:57:53.830Z,98926.31
2019-05-21T02:00:00.207Z,98919.70
2019-05-21T02:02:06.654Z,98913.97
2019-05-21T02:04:13.139Z,98913.59
2019-05-21T02:06:19.823Z,98917.15
2019-05-21T02:08:26.262Z,98922.10
2019-05-21T02:10:32.811Z,98925.70
2019-05-21T02:12:39.183Z,98934.16
2019-05-21T02:14:45.618Z,98936.39
2019-05-21T02:16:52.040Z,98932.02
2019-05-21T02:18:58.451Z,98931.11
2019-05-21T02:21:04.982Z,98931.08
2019-05-21T02:23:11.373Z,98923.14
2019-05-21T02:25:18.666Z,98929.78
2019-05-21T02:27:25.173Z,98926.22
2019-05-21T02:29:32.663Z,98920.91
2019-05-21T02:31:39.191Z,98916.86
2019-05-21T02:33:45.612Z,98912.88
2019-05-21T02:35:54.578Z,98911.00
2019-05-21T02:38:00.153Z,98906.07
2019-05-21T02:40:08.031Z,98904.25
2019-05-21T02:42:14.473Z,98900.69
2019-05-21T02:44:20.906Z,98900.20
2019-05-21T02:46:27.418Z,98904.99
2019-05-21T02:48:33.810Z,98905.87
2019-05-21T02:50:40.287Z,98908.00
2019-05-21T02:52:46.721Z,98900.88
2019-05-21T02:54:53.594Z,98907.02
2019-05-21T02:56:59.994Z,98911.39
2019-05-21T02:59:06.613Z,98904.72
2019-05-21T03:01:17.726Z,98911.33
2019-05-21T03:03:24.562Z,98905.91
2019-05-21T03:05:31.089Z,98917.27
2019-05-21T03:07:37.555Z,98911.88
2019-05-21T03:09:43.998Z,98906.05
2019-05-21T03:11:50.499Z,98908.98
2019-05-21T03:13:57.003Z,98911.48
2019-05-21T03:16:03.642Z,98916.25
2019-05-21T03:18:10.411Z,98922.85
2019-05-21T03:20:16.981Z,98926.77
2019-05-21T03:22:23.492Z,98927.95
2019-05-21T03:24:29.849Z,98926.97
2019-05-21T03:26:36.360Z,98929.44
2019-05-21T03:28:42.780Z,98926.13
2019-05-21T03:30:49.299Z,98920.24
2019-05-21T03:32:55.727Z,98916.48
2019-05-21T03:35:02.381Z,98912.83
2019-05-21T03:37:10.215Z,98914.00
2019-05-21T03:39:19.478Z,98915.55
2019-05-21T03:41:24.939Z,98917.06
2019-05-21T03:43:32.847Z,98919.90
2019-05-21T03:45:39.456Z,98915.08
2019-05-21T03:47:47.423Z,98919.91
2019-05-21T03:49:54.509Z,98923.10
2019-05-21T03:52:00.901Z,98921.15
2019-05-21T03:54:07.351Z,98923.09
2019-05-21T03:56:13.940Z,98923.73
2019-05-21T03:58:20.940Z,98922.41
2019-05-21T04:00:27.501Z,98926.23
2019-05-21T04:02:33.927Z,98916.41
2019-05-21T04:04:41.605Z,98915.30
2019-05-21T04:06:51.761Z,98907.86
2019-05-21T04:08:56.089Z,98897.69
2019-05-21T04:11:02.553Z,98898.36
2019-05-21T04:13:09.437Z,98897.25
2019-05-21T04:15:17.818Z,98896.41
2019-05-21T04:17:28.647Z,98896.92
2019-05-21T04:19:36.711Z,98896.67
2019-05-21T04:21:43.121Z,98897.46
2019-05-21T04:23:50.456Z,98896.25
2019-05-21T04:25:59.979Z,98894.06
2019-05-21T04:28:07.356Z,98895.45
2019-05-21T04:30:16.932Z,98887.11
2019-05-21T04:32:23.302Z,98889.72
2019-05-21T04:34:29.726Z,98885.41
2019-05-21T04:36:36.233Z,98887.23
2019-05-21T04:38:42.648Z,98890.33
2019-05-21T04:40:50.678Z,98884.58
2019-05-21T04:43:01.438Z,98872.62
2019-05-21T04:45:08.459Z,98871.00
2019-05-21T04:47:15.636Z,98874.48
2019-05-21T04:49:22.022Z,98867.69
2019-05-21T04:51:28.466Z,98867.42
2019-05-21T04:53:34.962Z,98867.80
2019-05-21T04:55:41.426Z,98863.34
2019-05-21T04:57:47.847Z,98867.12
2019-05-21T04:59:54.248Z,98874.02
2019-05-21T05:02:00.636Z,98879.22
2019-05-21T05:04:08.038Z,98871.17
2019-05-21T05:06:14.571Z,98876.27
2019-05-21T05:08:22.500Z,98875.23
2019-05-21T05:10:29.039Z,98879.02
2019-05-21T05:12:36.535Z,98881.52
2019-05-21T05:14:42.938Z,98885.69
2019-05-21T05:16:49.447Z,98881.60
2019-05-21T05:18:55.935Z,98886.83
2019-05-21T05:21:02.295Z,98898.44
2019-05-21T05:23:08.686Z,98897.95
2019-05-21T05:25:16.677Z,98899.12
2019-05-21T05:27:23.177Z,98894.89
2019-05-21T05:29:29.596Z,98889.80
2019-05-21T05:31:36.012Z,98882.55
2019-05-21T05:33:42.440Z,98881.25
2019-05-21T05:35:48.930Z,98884.61
2019-05-21T05:37:55.349Z,98884.11
2019-05-21T05:40:01.808Z,98888.67
2019-05-21T05:42:08.344Z,98890.34
2019-05-21T05:44:14.875Z,98885.58
2019-05-21T05:46:21.236Z,98886.07
2019-05-21T05:48:29.218Z,98888.00
2019-05-21T05:50:37.294Z,98874.16
2019-05-21T05:52:43.748Z,98877.05
2019-05-21T05:54:50.225Z,98868.34
2019-05-21T05:56:56.644Z,98866.88
2019-05-21T05:59:03.146Z,98863.42
2019-05-21T06:01:09.564Z,98857.60
2019-05-21T06:03:15.994Z,98857.52
2019-05-21T06:05:22.508Z,98854.81
2019-05-21T06:07:28.948Z,98861.00
2019-05-21T06:09:35.345Z,98866.20
2019-05-21T06:11:41.755Z,98871.63
2019-05-21T06:13:49.664Z,98866.13
2019-05-21T06:15:57.117Z,98863.98
2019-05-21T06:18:03.580Z,98863.66
2019-05-21T06:20:10.897Z,98870.91
2019-05-21T06:22:17.369Z,98860.66
2019-05-21T06:24:23.880Z,98867.42
2019-05-21T06:26:30.385Z,98859.29
2019-05-21T06:28:36.805Z,98860.66
2019-05-21T06:30:43.257Z,98864.30
2019-05-21T06:32:49.669Z,98865.58
2019-05-21T06:34:56.082Z,98862.34
2019-05-21T06:37:03.637Z,98847.52
2019-05-21T06:39:11.398Z,98850.58
2019-05-21T06:41:17.910Z,98846.67
2019-05-21T06:43:24.358Z,98842.95
2019-05-21T06:45:30.848Z,98844.70
2019-05-21T06:47:37.409Z,98847.63
2019-05-21T06:49:43.843Z,98856.23
2019-05-21T06:51:50.254Z,98858.09
2019-05-21T06:53:56.728Z,98856.56
2019-05-21T06:56:07.182Z,98854.33
2019-05-21T06:58:11.166Z,98851.50
2019-05-21T07:00:20.482Z,98854.11
2019-05-21T07:02:26.923Z,98845.08
2019-05-21T07:04:33.297Z,98851.27
2019-05-21T07:06:39.715Z,98847.81
2019-05-21T07:08:46.158Z,98847.39
2019-05-21T07:10:52.549Z,98853.94
2019-05-21T07:12:58.983Z,98855.73
2019-05-21T07:15:09.319Z,98858.59
2019-05-21T07:17:15.795Z,98859.18
2019-05-21T07:19:22.388Z,98865.06
2019-05-21T07:21:28.917Z,98862.19
2019-05-21T07:23:35.314Z,98863.84
2019-05-21T07:25:41.732Z,98862.02
2019-05-21T07:27:48.131Z,98854.77
2019-05-21T07:29:54.539Z,98854.59
2019-05-21T07:32:00.959Z,98862.02
2019-05-21T07:34:07.428Z,98853.42
2019-05-21T07:36:13.989Z,98846.42
2019-05-21T07:38:20.501Z,98847.25
2019-05-21T07:40:26.921Z,98837.80
2019-05-21T07:42:33.407Z,98833.48
2019-05-21T07:44:39.851Z,98828.13
2019-05-21T07:46:46.399Z,98830.30
2019-05-21T07:48:52.891Z,98831.62
2019-05-21T07:50:59.373Z,98834.42
2019-05-21T07:53:07.382Z,98832.77
2019-05-21T07:55:13.971Z,98831.71
2019-05-21T07:57:20.450Z,98828.80
2019-05-21T07:59:26.838Z,98831.11
2019-05-21T08:01:33.305Z,98831.91
2019-05-21T08:03:39.670Z,98826.58
2019-05-21T08:05:47.161Z,98819.30
2019-05-21T08:07:53.645Z,98813.48
2019-05-21T08:10:00.040Z,98817.34
2019-05-21T08:12:27.919Z,98826.56
2019-05-21T08:14:14.860Z,98823.60
2019-05-21T08:16:21.334Z,98815.28
2019-05-21T08:18:27.723Z,98826.28
2019-05-21T08:20:34.122Z,98830.52
2019-05-21T08:22:40.513Z,98826.11
2019-05-21T08:24:46.969Z,98825.58
2019-05-21T08:26:53.359Z,98821.08
2019-05-21T08:28:59.756Z,98819.59
2019-05-21T08:31:06.301Z,98829.38
2019-05-21T08:33:12.704Z,98820.06
2019-05-21T08:35:19.083Z,98829.19
2019-05-21T08:37:25.548Z,98827.05
2019-05-21T08:39:31.987Z,98840.92
2019-05-21T08:41:38.446Z,98834.23
2019-05-21T08:43:45.191Z,98829.96
2019-05-21T08:45:51.585Z,98831.39
2019-05-21T08:47:58.183Z,98823.86
2019-05-21T08:50:09.383Z,98823.05
2019-05-21T08:52:15.773Z,98813.96
2019-05-21T08:54:23.794Z,98819.14
2019-05-21T08:56:30.988Z,98813.94
2019-05-21T08:58:37.435Z,98816.69
2019-05-21T09:00:43.888Z,98821.97
2019-05-21T09:02:50.373Z,98830.80
2019-05-21T09:04:56.908Z,98828.09
2019-05-21T09:07:03.423Z,98824.05
2019-05-21T09:09:09.822Z,98824.86
2019-05-21T09:11:16.336Z,98822.45
2019-05-21T09:13:22.697Z,98813.35
2019-05-21T09:15:29.102Z,98817.30
2019-05-21T09:17:35.501Z,98812.84
2019-05-21T09:19:41.937Z,98807.99
2019-05-21T09:21:48.432Z,98797.27
2019-05-21T09:23:54.848Z,98806.25
2019-05-21T09:26:01.301Z,98801.52
2019-05-21T09:28:07.965Z,98796.87
2019-05-21T09:30:15.448Z,98799.88
2019-05-21T09:32:22.009Z,98788.73
2019-05-21T09:34:28.488Z,98787.88
2019-05-21T09:36:34.938Z,98788.94
2019-05-21T09:38:41.371Z,98788.81
2019-05-21T09:40:47.862Z,98777.20
2019-05-21T09:42:54.376Z,98784.36
2019-05-21T09:45:00.802Z,98773.53
2019-05-21T09:47:07.261Z,98775.10
2019-05-21T09:49:13.752Z,98777.49
2019-05-21T09:51:21.942Z,98777.38
2019-05-21T09:53:28.425Z,98774.40
2019-05-21T09:55:34.942Z,98768.11
2019-05-21T09:57:45.869Z,98764.73
2019-05-21T09:59:53.968Z,98754.14
2019-05-21T10:02:03.109Z,98752.72
2019-05-21T10:04:09.546Z,98745.11
2019-05-21T10:06:16.006Z,98745.61
2019-05-21T10:08:22.477Z,98739.10
2019-05-21T10:10:28.954Z,98734.46
2019-05-21T10:12:35.433Z,98731.44
2019-05-21T10:14:41.844Z,98714.86
2019-05-21T10:16:48.300Z,98715.77
2019-05-21T10:18:54.872Z,98712.28
2019-05-21T10:21:01.334Z,98710.88
2019-05-21T10:23:07.897Z,98701.50
2019-05-21T10:25:16.013Z,98705.02
2019-05-21T10:27:22.802Z,98701.95
2019-05-21T10:29:29.248Z,98699.36
2019-05-21T10:31:35.660Z,98703.78
2019-05-21T10:33:42.086Z,98687.22
2019-05-21T10:35:48.484Z,98677.13
2019-05-21T10:37:55.642Z,98680.11
2019-05-21T10:40:03.315Z,98679.03
2019-05-21T10:42:09.892Z,98671.18
2019-05-21T10:44:16.391Z,98668.63
2019-05-21T10:46:22.908Z,98673.39
2019-05-21T10:48:29.539Z,98670.70
2019-05-21T10:50:36.071Z,98661.31
2019-05-21T10:52:42.522Z,98650.44
2019-05-21T10:54:49.014Z,98653.37
2019-05-21T10:56:55.621Z,98658.56
2019-05-21T10:59:02.071Z,98665.03
2019-05-21T11:01:10.270Z,98664.08
2019-05-21T11:03:24.574Z,98668.95
2019-05-21T11:05:35.416Z,98666.45
2019-05-21T11:07:43.296Z,98663.66
2019-05-21T11:09:49.709Z,98658.18
2019-05-21T11:11:56.148Z,98667.44
2019-05-21T11:14:02.750Z,98669.95
2019-05-21T11:16:09.279Z,98682.34
2019-05-21T11:18:15.830Z,98678.67
2019-05-21T11:20:22.487Z,98674.92
2019-05-21T11:22:28.874Z,98689.73
2019-05-21T11:24:35.306Z,98675.59
2019-05-21T11:26:41.784Z,98667.47
2019-05-21T11:28:48.212Z,98665.94
2019-05-21T11:30:54.776Z,98653.13
2019-05-21T11:33:01.265Z,98657.22
2019-05-21T11:35:10.648Z,98657.02
2019-05-21T11:37:17.103Z,98648.10
2019-05-21T11:39:23.601Z,98638.96
2019-05-21T11:41:30.124Z,98643.03
2019-05-21T11:43:36.686Z,98653.14
2019-05-21T11:45:43.469Z,98655.73
2019-05-21T11:47:50.150Z,98653.22
2019-05-21T11:49:56.625Z,98641.02
2019-05-21T11:52:03.072Z,98644.59
2019-05-21T11:54:09.595Z,98646.17
2019-05-21T11:56:15.982Z,98662.02
2019-05-21T11:58:22.520Z,98666.05
2019-05-21T12:00:29.499Z,98659.97
2019-05-21T12:02:35.873Z,98660.83
2019-05-21T12:04:42.306Z,98654.57
2019-05-21T12:06:49.746Z,98646.50
2019-05-21T12:08:57.383Z,98647.27
2019-05-21T12:11:04.017Z,98639.50
2019-05-21T12:13:10.506Z,98634.10
2019-05-21T12:15:17.418Z,98639.88
2019-05-21T12:17:23.948Z,98645.17
2019-05-21T12:19:30.369Z,98640.65
2019-05-21T12:21:37.867Z,98637.08
2019-05-21T12:23:44.410Z,98646.59
2019-05-21T12:25:51.856Z,98651.85
2019-05-21T12:27:58.315Z,98630.12
2019-05-21T12:30:08.458Z,98626.05
2019-05-21T12:32:14.906Z,98633.35
2019-05-21T12:34:21.383Z,98623.63
2019-05-21T12:36:27.898Z,98621.12
2019-05-21T12:38:34.496Z,98623.23
2019-05-21T12:40:40.901Z,98617.86
2019-05-21T12:42:47.393Z,98614.77
2019-05-21T12:44:54.296Z,98609.19
2019-05-21T12:47:00.779Z,98607.45
2019-05-21T12:49:07.290Z,98608.08
2019-05-21T12:51:13.935Z,98603.86
2019-05-21T12:53:20.616Z,98597.30
2019-05-21T12:55:27.046Z,98594.42
2019-05-21T12:57:33.576Z,98592.65
2019-05-21T12:59:40.206Z,98591.36
2019-05-21T13:01:46.572Z,98588.83
2019-05-21T13:03:55.391Z,98590.11
2019-05-21T13:06:02.284Z,98590.75
2019-05-21T13:08:08.921Z,98583.97
2019-05-21T13:10:15.875Z,98581.45
2019-05-21T13:12:22.285Z,98583.69
2019-05-21T13:14:28.791Z,98575.03
2019-05-21T13:16:35.278Z,98592.31
2019-05-21T13:18:41.797Z,98583.36
2019-05-21T13:20:48.294Z,98585.52
2019-05-21T13:22:54.773Z,98570.67
2019-05-21T13:25:01.227Z,98578.77
2019-05-21T13:27:09.052Z,98588.17
2019-05-21T13:29:15.608Z,98595.92
2019-05-21T13:31:22.416Z,98600.69
2019-05-21T13:33:28.937Z,98606.23
2019-05-21T13:35:35.459Z,98620.70
2019-05-21T13:37:42.059Z,98624.96
2019-05-21T13:39:50.432Z,98607.78
2019-05-21T13:41:56.590Z,98604.99
2019-05-21T13:44:04.430Z,98597.58
2019-05-21T13:46:10.865Z,98595.23
2019-05-21T13:48:17.426Z,98599.34
2019-05-21T13:50:23.965Z,98595.00
2019-05-21T13:52:30.394Z,98572.56
2019-05-21T13:54:36.993Z,98568.55
2019-05-21T13:56:43.439Z,98578.22
2019-05-21T13:58:49.928Z,98577.55
2019-05-21T14:00:56.524Z,98570.17
2019-05-21T14:03:03.420Z,98581.41
2019-05-21T14:05:12.284Z,98572.27
2019-05-21T14:07:17.990Z,98573.66
2019-05-21T14:09:24.277Z,98575.56
2019-05-21T14:11:30.908Z,98575.72
2019-05-21T14:13:37.529Z,98562.78
2019-05-21T14:15:44.008Z,98565.62
2019-05-21T14:17:50.514Z,98565.58
2019-05-21T14:19:56.927Z,98557.61
2019-05-21T14:22:03.522Z,98564.24
2019-05-21T14:24:10.113Z,98570.31
2019-05-21T14:26:16.520Z,98567.41
2019-05-21T14:28:22.999Z,98568.56
2019-05-21T14:30:29.597Z,98573.77
2019-05-21T14:32:36.019Z,98567.34
2019-05-21T14:34:42.449Z,98563.82
2019-05-21T14:36:48.897Z,98566.41
2019-05-21T14:38:55.343Z,98567.77
2019-05-21T14:41:01.724Z,98573.72
2019-05-21T14:43:08.287Z,98567.97
2019-05-21T14:45:15.903Z,98563.84
2019-05-21T14:47:22.339Z,98574.04
2019-05-21T14:49:28.744Z,98566.72
2019-05-21T14:51:35.174Z,98563.63
2019-05-21T14:53:41.571Z,98568.05
2019-05-21T14:55:48.100Z,98554.91
2019-05-21T14:57:54.526Z,98554.70
2019-05-21T15:00:01.040Z,98549.14
2019-05-21T15:02:07.805Z,98545.58
2019-05-21T15:04:14.288Z,98549.12
2019-05-21T15:06:20.775Z,98547.49
2019-05-21T15:08:27.209Z,98547.98
2019-05-21T15:10:47.266Z,98558.71
2019-05-21T15:12:41.680Z,98546.98
2019-05-21T15:14:48.037Z,98550.41
2019-05-21T15:16:54.599Z,98548.64
2019-05-21T15:19:01.258Z,98559.34
2019-05-21T15:21:09.424Z,98553.16
2019-05-21T15:23:15.992Z,98560.34
2019-05-21T15:25:22.579Z,98566.53
2019-05-21T15:27:30.128Z,98553.52
2019-05-21T15:29:36.593Z,98551.42
2019-05-21T15:31:42.979Z,98549.71
2019-05-21T15:33:49.539Z,98560.17
2019-05-21T15:35:55.979Z,98550.53
2019-05-21T15:38:02.472Z,98558.34
2019-05-21T15:40:09.979Z,98563.90
2019-05-21T15:42:16.758Z,98561.39
2019-05-21T15:44:23.158Z,98564.73
2019-05-21T15:46:45.505Z,98558.78
2019-05-21T15:48:37.771Z,98548.73
2019-05-21T15:50:44.335Z,98560.00
2019-05-21T15:52:50.787Z,98561.91
2019-05-21T15:54:57.218Z,98570.16
2019-05-21T15:57:03.702Z,98577.75
2019-05-21T15:59:12.991Z,98584.36
2019-05-21T16:01:19.373Z,98586.45
2019-05-21T16:03:25.890Z,98580.38
2019-05-21T16:05:32.309Z,98568.47
2019-05-21T16:07:38.798Z,98585.36
2019-05-21T16:09:45.363Z,98579.40
2019-05-21T16:11:51.785Z,98586.11
2019-05-21T16:13:58.221Z,98587.45
2019-05-21T16:16:04.979Z,98584.30
2019-05-21T16:18:11.436Z,98592.50
2019-05-21T16:20:19.368Z,98583.03
2019-05-21T16:22:25.825Z,98593.36
2019-05-21T16:24:32.743Z,98597.39
2019-05-21T16:26:39.265Z,98597.00
2019-05-21T16:28:45.679Z,98598.89
2019-05-21T16:30:52.077Z,98595.50
2019-05-21T16:32:59.787Z,98603.19
2019-05-21T16:35:10.256Z,98604.13
2019-05-21T16:37:16.977Z,98601.95
2019-05-21T16:39:25.283Z,98600.28
2019-05-21T16:41:44.244Z,98603.43
2019-05-21T16:43:40.110Z,98608.47
2019-05-21T16:45:46.522Z,98596.83
2019-05-21T16:47:52.946Z,98602.58
2019-05-21T16:49:59.547Z,98608.96
2019-05-21T16:52:07.102Z,98600.77
2019-05-21T16:54:13.548Z,98600.22
2019-05-21T16:56:20.029Z,98594.94
2019-05-21T16:58:26.462Z,98594.07
2019-05-21T17:00:33.491Z,98600.30
2019-05-21T17:02:39.986Z,98601.16
2019-05-21T17:04:46.404Z,98588.55
2019-05-21T17:06:52.796Z,98590.13
2019-05-21T17:08:59.175Z,98601.47
2019-05-21T17:11:05.697Z,98601.71
2019-05-21T17:13:12.701Z,98596.91
2019-05-21T17:15:19.413Z,98600.78
2019-05-21T17:17:25.878Z,98616.28
2019-05-21T17:19:32.385Z,98605.17
2019-05-21T17:21:39.046Z,98602.10
2019-05-21T17:23:45.419Z,98609.70
2019-05-21T17:25:51.911Z,98609.84
2019-05-21T17:27:58.318Z,98613.05
2019-05-21T17:30:08.926Z,98610.62
2019-05-21T17:32:15.352Z,98610.08
2019-05-21T17:34:21.803Z,98620.30
2019-05-21T17:36:28.274Z,98636.63
2019-05-21T17:38:35.068Z,98642.49
2019-05-21T17:40:41.725Z,98643.00
2019-05-21T17:42:48.662Z,98647.78
2019-05-21T17:44:56.258Z,98638.63
2019-05-21T17:47:02.756Z,98632.51
2019-05-21T17:49:09.298Z,98648.17
2019-05-21T17:51:15.705Z,98635.53
2019-05-21T17:53:22.144Z,98638.69
2019-05-21T17:55:28.790Z,98640.25
2019-05-21T17:57:36.058Z,98647.81
2019-05-21T17:59:42.592Z,98650.30
2019-05-21T18:01:50.728Z,98645.74
2019-05-21T18:03:57.231Z,98650.80
2019-05-21T18:06:05.014Z,98663.62
2019-05-21T18:08:12.025Z,98651.89
2019-05-21T18:10:18.822Z,98651.20
2019-05-21T18:12:32.162Z,98663.20
2019-05-21T18:14:36.135Z,98652.42
2019-05-21T18:16:43.012Z,98652.35
2019-05-21T18:18:49.996Z,98651.81
2019-05-21T18:20:57.150Z,98653.89
2019-05-21T18:23:03.907Z,98649.31
2019-05-21T18:25:11.587Z,98654.47
2019-05-21T18:27:20.322Z,98653.98
2019-05-21T18:29:26.788Z,98658.75
2019-05-21T18:31:33.350Z,98665.81
2019-05-21T18:33:39.819Z,98672.32
2019-05-21T18:35:46.368Z,98672.67
2019-05-21T18:37:53.104Z,98677.87
2019-05-21T18:39:59.747Z,98675.50
2019-05-21T18:42:21.267Z,98682.92
2019-05-21T18:44:16.627Z,98685.84
2019-05-21T18:46:23.211Z,98687.41
2019-05-21T18:48:30.631Z,98695.20
2019-05-21T18:50:37.463Z,98701.62
2019-05-21T18:52:45.243Z,98703.13
2019-05-21T18:54:52.985Z,98713.56
2019-05-21T18:56:59.556Z,98714.30
2019-05-21T18:59:06.149Z,98710.91
2019-05-21T19:01:12.951Z,98710.63
2019-05-21T19:03:25.229Z,98713.07
2019-05-21T19:05:27.858Z,98718.57
2019-05-21T19:07:35.864Z,98722.75
2019-05-21T19:09:42.568Z,98731.82
2019-05-21T19:11:49.035Z,98739.12
2019-05-21T19:13:55.556Z,98740.17
2019-05-21T19:16:02.126Z,98746.62
2019-05-21T19:18:08.728Z,98742.30
2019-05-21T19:20:16.355Z,98746.50
2019-05-21T19:22:23.197Z,98744.93
2019-05-21T19:24:30.674Z,98753.53
2019-05-21T19:26:37.177Z,98753.66
2019-05-21T19:28:43.669Z,98757.27
2019-05-21T19:30:50.307Z,98762.67
2019-05-21T19:32:56.674Z,98760.55
2019-05-21T19:35:03.647Z,98758.89
2019-05-21T19:37:10.942Z,98761.63
2019-05-21T19:39:17.559Z,98763.50
2019-05-21T19:41:24.351Z,98758.31
2019-05-21T19:43:32.032Z,98754.44
2019-05-21T19:45:38.893Z,98752.82
2019-05-21T19:47:45.383Z,98743.22
2019-05-21T19:49:51.829Z,98743.37
2019-05-21T19:51:58.337Z,98740.76
2019-05-21T19:54:05.076Z,98743.53
2019-05-21T19:56:11.619Z,98738.25
2019-05-21T19:58:18.538Z,98729.95
2019-05-21T20:00:27.868Z,98733.59
2019-05-21T20:02:35.048Z,98739.93
2019-05-21T20:04:42.573Z,98737.36
2019-05-21T20:06:49.351Z,98735.16
2019-05-21T20:08:56.412Z,98744.07
2019-05-21T20:11:04.049Z,98739.30
2019-05-21T20:13:10.583Z,98738.95
2019-05-21T20:15:18.537Z,98740.77
2019-05-21T20:17:26.202Z,98738.16
2019-05-21T20:19:33.051Z,98736.86
2019-05-21T20:21:39.673Z,98735.12
2019-05-21T20:23:47.278Z,98733.48
2019-05-21T20:25:56.853Z,98742.47
2019-05-21T20:28:03.091Z,98740.77
2019-05-21T20:30:14.815Z,98734.23
2019-05-21T20:32:23.207Z,98739.62
2019-05-21T20:34:30.203Z,98739.16
2019-05-21T20:36:36.810Z,98737.03
2019-05-21T20:38:43.577Z,98743.33
2019-05-21T20:40:52.447Z,98736.77
2019-05-21T20:43:01.379Z,98743.86
2019-05-21T20:45:11.613Z,98751.44
2019-05-21T20:47:18.986Z,98749.76
2019-05-21T20:49:25.755Z,98740.92
2019-05-21T20:51:32.783Z,98741.83
2019-05-21T20:53:39.379Z,98733.48
2019-05-21T20:55:46.020Z,98729.95
2019-05-21T20:57:53.862Z,98735.75
2019-05-21T21:00:03.352Z,98732.30
2019-05-21T21:02:13.145Z,98731.46
2019-05-21T21:04:19.652Z,98739.39
2019-05-21T21:06:35.294Z,98738.55
2019-05-21T21:08:38.968Z,98735.09
2019-05-21T21:10:45.571Z,98744.83
2019-05-21T21:12:52.850Z,98740.47
2019-05-21T21:14:59.434Z,98730.31
2019-05-21T21:17:06.269Z,98733.91
2019-05-21T21:19:12.945Z,98728.67
2019-05-21T21:21:20.632Z,98731.36
2019-05-21T21:23:29.263Z,98726.13
2019-05-21T21:25:35.908Z,98722.17
2019-05-21T21:27:42.643Z,98716.91
2019-05-21T21:29:49.385Z,98716.52
2019-05-21T21:31:56.282Z,98725.80
2019-05-21T21:34:03.903Z,98724.96
2019-05-21T21:36:10.362Z,98725.00
2019-05-21T21:38:18.600Z,98724.12
2019-05-21T21:40:25.284Z,98715.36
2019-05-21T21:42:32.330Z,98713.16
2019-05-21T21:44:39.420Z,98712.70
2019-05-21T21:46:45.975Z,98706.95
2019-05-21T21:48:54.133Z,98708.73
2019-05-21T21:51:01.070Z,98709.22
2019-05-21T21:53:07.854Z,98709.67
2019-05-21T21:55:14.885Z,98724.23
2019-05-21T21:57:21.394Z,98714.94
2019-05-21T21:59:27.929Z,98712.77
2019-05-21T22:01:54.572Z,98716.78
2019-05-21T22:04:04.798Z,98719.41
2019-05-21T22:06:14.127Z,98716.75
2019-05-21T22:08:21.027Z,98711.03
2019-05-21T22:10:28.054Z,98713.27
2019-05-21T22:12:34.607Z,98714.17
2019-05-21T22:14:50.494Z,98715.95
2019-05-21T22:16:51.885Z,98710.71
2019-05-21T22:18:59.250Z,98710.30
2019-05-21T22:21:05.772Z,98709.94
2019-05-21T22:23:12.806Z,98712.59
2019-05-21T22:25:20.302Z,98708.19
2019-05-21T22:27:27.001Z,98719.25
2019-05-21T22:29:33.566Z,98714.89
2019-05-21T22:31:41.500Z,98707.39
2019-05-21T22:33:47.909Z,98701.24
2019-05-21T22:35:54.552Z,98699.05
2019-05-21T22:38:01.025Z,98706.09
2019-05-21T22:40:08.392Z,98716.70
2019-05-21T22:42:15.923Z,98710.98
2019-05-21T22:44:22.420Z,98707.06
2019-05-21T22:46:28.972Z,98708.84
2019-05-21T22:48:35.587Z,98706.29
2019-05-21T22:50:42.144Z,98695.75
2019-05-21T22:52:48.652Z,98693.59
2019-05-21T22:54:55.365Z,98693.20
2019-05-21T22:57:01.815Z,98698.53
2019-05-21T22:59:08.417Z,98692.45
2019-05-21T23:01:16.016Z,98691.64
2019-05-21T23:03:22.886Z,98694.75
2019-05-21T23:05:29.383Z,98691.67
2019-05-21T23:07:36.097Z,98695.23
2019-05-21T23:09:42.611Z,98687.73
2019-05-21T23:11:49.073Z,98678.91
2019-05-21T23:13:55.586Z,98675.84
2019-05-21T23:16:05.057Z,98676.77
2019-05-21T23:18:29.812Z,98680.75
2019-05-21T23:20:47.288Z,98681.66
2019-05-21T23:22:58.626Z,98684.72
2019-05-21T23:25:10.633Z,98684.69
2019-05-21T23:27:17.737Z,98674.09
2019-05-21T23:29:24.639Z,98679.00
2019-05-21T23:31:32.326Z,98679.06
2019-05-21T23:33:38.893Z,98676.42
2019-05-21T23:35:45.979Z,98668.92
2019-05-21T23:37:53.260Z,98669.80
2019-05-21T23:40:00.855Z,98669.86
2019-05-21T23:42:08.801Z,98672.05
2019-05-21T23:44:15.777Z,98672.53
2019-05-21T23:46:23.127Z,98669.95
2019-05-21T23:48:30.411Z,98677.52
2019-05-21T23:50:37.009Z,98673.98
2019-05-21T23:52:44.562Z,98682.42
2019-05-21T23:54:51.509Z,98684.30
2019-05-21T23:56:59.843Z,98682.13
2019-05-21T23:59:08.046Z,98676.41
